createdAt,value
2019-03-16T00:02:11.850Z,7.30
2019-03-16T00:04:40.836Z,7.30
2019-03-16T00:07:09.902Z,7.20
2019-03-16T00:09:38.926Z,7.20
2019-03-16T00:12:07.871Z,7.20
2019-03-16T00:14:36.778Z,7.20
2019-03-16T00:17:22.886Z,7.20
2019-03-16T00:19:42.246Z,7.10
2019-03-16T00:22:11.186Z,7.10
2019-03-16T00:24:44.224Z,7.10
2019-03-16T00:27:13.770Z,7.10
2019-03-16T00:29:42.706Z,7.00
2019-03-16T00:32:13.610Z,7.00
2019-03-16T00:34:49.358Z,7.10
2019-03-16T00:37:23.180Z,7.00
2019-03-16T00:39:52.123Z,7.00
2019-03-16T00:42:26.665Z,7.00
2019-03-16T00:44:55.761Z,7.00
2019-03-16T00:47:29.513Z,6.90
2019-03-16T00:50:09.631Z,6.90
2019-03-16T00:52:38.714Z,6.90
2019-03-16T00:55:07.805Z,7.00
2019-03-16T00:57:36.801Z,6.90
2019-03-16T01:00:11.179Z,6.80
2019-03-16T01:02:46.670Z,6.80
2019-03-16T01:05:15.622Z,6.80
2019-03-16T01:07:44.599Z,6.80
2019-03-16T01:10:19.777Z,6.80
2019-03-16T01:12:51.348Z,6.80
2019-03-16T01:15:20.346Z,6.70
2019-03-16T01:17:54.585Z,6.80
2019-03-16T01:20:23.545Z,6.70
2019-03-16T01:22:57.408Z,6.70
2019-03-16T01:25:29.078Z,6.80
2019-03-16T01:28:00.688Z,6.80
2019-03-16T01:30:29.695Z,6.80
2019-03-16T01:33:04.163Z,6.70
2019-03-16T01:35:33.096Z,6.70
2019-03-16T01:38:02.013Z,6.70
2019-03-16T01:40:31.052Z,6.70
2019-03-16T01:43:07.419Z,6.70
2019-03-16T01:45:36.372Z,6.80
2019-03-16T01:48:09.205Z,6.80
2019-03-16T01:50:38.692Z,6.80
2019-03-16T01:53:11.720Z,6.80
2019-03-16T01:55:41.205Z,6.80
2019-03-16T01:58:15.470Z,6.70
2019-03-16T02:00:44.565Z,6.70
2019-03-16T02:03:14.451Z,6.70
2019-03-16T02:05:45.603Z,6.70
2019-03-16T02:08:15.995Z,6.70
2019-03-16T02:10:47.143Z,6.70
2019-03-16T02:13:16.119Z,6.70
2019-03-16T02:15:45.116Z,6.70
2019-03-16T02:18:17.143Z,6.70
2019-03-16T02:20:46.487Z,6.70
2019-03-16T02:23:16.699Z,6.60
2019-03-16T02:25:47.823Z,6.70
2019-03-16T02:28:17.582Z,6.70
2019-03-16T02:30:46.487Z,6.70
2019-03-16T02:33:15.395Z,6.70
2019-03-16T02:35:44.333Z,6.60
2019-03-16T02:38:15.720Z,6.60
2019-03-16T02:40:44.632Z,6.60
2019-03-16T02:43:13.630Z,6.60
2019-03-16T02:45:48.901Z,6.60
2019-03-16T02:48:23.786Z,6.60
2019-03-16T02:50:52.728Z,6.60
2019-03-16T02:53:29.916Z,6.60
2019-03-16T02:55:58.943Z,6.60
2019-03-16T02:58:32.799Z,6.60
2019-03-16T03:01:01.808Z,6.60
2019-03-16T03:03:39.967Z,6.70
2019-03-16T03:06:12.347Z,6.70
2019-03-16T03:08:43.638Z,6.60
2019-03-16T03:11:12.609Z,6.60
2019-03-16T03:13:41.517Z,6.60
2019-03-16T03:16:14.870Z,6.60
2019-03-16T03:18:52.244Z,6.50
2019-03-16T03:21:24.584Z,6.50
2019-03-16T03:23:54.084Z,6.50
2019-03-16T03:26:30.181Z,6.50
2019-03-16T03:28:59.088Z,6.50
2019-03-16T03:31:27.979Z,6.50
2019-03-16T03:34:00.964Z,6.50
2019-03-16T03:36:25.808Z,6.50
2019-03-16T03:38:58.705Z,6.50
2019-03-16T03:41:27.700Z,6.60
2019-03-16T03:44:02.421Z,6.50
2019-03-16T03:46:32.548Z,6.50
2019-03-16T03:49:01.754Z,6.40
2019-03-16T03:51:30.723Z,6.40
2019-03-16T03:53:59.659Z,6.40
2019-03-16T03:56:28.630Z,6.40
2019-03-16T03:59:02.715Z,6.40
2019-03-16T04:01:31.686Z,6.40
2019-03-16T04:04:14.225Z,6.40
2019-03-16T04:06:29.692Z,6.40
2019-03-16T04:09:00.228Z,6.40
2019-03-16T04:11:29.169Z,6.40
2019-03-16T04:13:58.091Z,6.40
2019-03-16T04:16:27.030Z,6.40
2019-03-16T04:19:00.256Z,6.40
2019-03-16T04:21:29.165Z,6.40
2019-03-16T04:23:58.132Z,6.40
2019-03-16T04:26:31.219Z,6.40
2019-03-16T04:29:00.158Z,6.40
2019-03-16T04:31:29.125Z,6.30
2019-03-16T04:34:01.822Z,6.30
2019-03-16T04:36:41.092Z,6.30
2019-03-16T04:39:13.712Z,6.30
2019-03-16T04:41:43.346Z,6.30
2019-03-16T04:44:12.336Z,6.30
2019-03-16T04:46:41.299Z,6.30
2019-03-16T04:49:14.062Z,6.30
2019-03-16T04:51:49.014Z,6.30
2019-03-16T04:54:18.014Z,6.20
2019-03-16T04:56:46.927Z,6.20
2019-03-16T04:59:15.847Z,6.10
2019-03-16T05:01:47.848Z,6.20
2019-03-16T05:04:16.786Z,6.20
2019-03-16T05:06:50.614Z,6.20
2019-03-16T05:09:20.407Z,6.20
2019-03-16T05:11:49.383Z,6.20
2019-03-16T05:14:23.567Z,6.20
2019-03-16T05:16:54.692Z,6.20
2019-03-16T05:19:23.786Z,6.20
2019-03-16T05:21:58.489Z,6.30
2019-03-16T05:24:27.611Z,6.30
2019-03-16T05:27:02.467Z,6.30
2019-03-16T05:29:31.623Z,6.30
2019-03-16T05:32:04.985Z,6.30
2019-03-16T05:34:37.970Z,6.30
2019-03-16T05:37:12.637Z,6.30
2019-03-16T05:39:41.609Z,6.30
2019-03-16T05:42:17.673Z,6.30
2019-03-16T05:44:46.686Z,6.30
2019-03-16T05:47:20.357Z,6.30
2019-03-16T05:49:49.390Z,6.40
2019-03-16T05:52:18.500Z,6.30
2019-03-16T05:54:47.476Z,6.40
2019-03-16T05:57:16.726Z,6.40
2019-03-16T05:59:45.730Z,6.40
2019-03-16T06:02:19.568Z,6.40
2019-03-16T06:04:49.320Z,6.40
2019-03-16T06:07:18.516Z,6.50
2019-03-16T06:09:48.515Z,6.50
2019-03-16T06:12:17.869Z,6.50
2019-03-16T06:14:50.370Z,6.50
2019-03-16T06:17:20.818Z,6.60
2019-03-16T06:19:50.921Z,6.70
2019-03-16T06:22:20.028Z,6.70
2019-03-16T06:24:50.894Z,6.80
2019-03-16T06:27:23.409Z,6.90
2019-03-16T06:29:57.349Z,7.00
2019-03-16T06:32:30.596Z,7.00
2019-03-16T06:34:59.589Z,7.00
2019-03-16T06:37:34.717Z,7.10
2019-03-16T06:40:07.485Z,7.20
2019-03-16T06:42:36.542Z,7.20
2019-03-16T06:45:11.132Z,7.30
2019-03-16T06:47:44.469Z,7.20
2019-03-16T06:50:19.446Z,7.20
2019-03-16T06:52:49.493Z,7.20
2019-03-16T06:55:18.552Z,7.30
2019-03-16T06:57:56.484Z,7.30
2019-03-16T07:00:25.562Z,7.40
2019-03-16T07:02:54.724Z,7.40
2019-03-16T07:05:38.131Z,7.40
2019-03-16T07:08:04.276Z,7.40
2019-03-16T07:10:33.364Z,7.50
2019-03-16T07:13:06.320Z,7.60
2019-03-16T07:15:35.871Z,7.70
2019-03-16T07:18:09.334Z,7.80
2019-03-16T07:20:39.020Z,7.80
2019-03-16T07:23:08.140Z,7.80
2019-03-16T07:25:37.187Z,7.90
2019-03-16T07:28:07.133Z,7.90
2019-03-16T07:30:37.383Z,8.00
2019-03-16T07:33:12.289Z,8.20
2019-03-16T07:35:41.768Z,8.10
2019-03-16T07:38:11.458Z,8.20
2019-03-16T07:40:45.949Z,8.20
2019-03-16T07:43:20.004Z,8.40
2019-03-16T07:45:53.517Z,8.50
2019-03-16T07:48:27.449Z,8.50
2019-03-16T07:50:59.955Z,8.70
2019-03-16T07:53:33.127Z,8.40
2019-03-16T07:56:02.139Z,8.40
2019-03-16T07:58:31.301Z,8.60
2019-03-16T08:01:03.272Z,8.60
2019-03-16T08:03:34.278Z,8.70
2019-03-16T08:06:03.734Z,8.80
2019-03-16T08:08:37.041Z,8.70
2019-03-16T08:11:06.113Z,8.80
2019-03-16T08:13:36.011Z,8.90
2019-03-16T08:16:05.244Z,9.20
2019-03-16T08:18:41.881Z,9.60
2019-03-16T08:21:11.617Z,9.60
2019-03-16T08:23:42.863Z,9.20
2019-03-16T08:26:17.628Z,8.90
2019-03-16T08:28:46.788Z,8.80
2019-03-16T08:31:17.161Z,8.80
2019-03-16T08:33:47.075Z,8.80
2019-03-16T08:36:17.683Z,8.70
2019-03-16T08:38:47.863Z,8.80
2019-03-16T08:41:17.419Z,8.80
2019-03-16T08:43:46.627Z,8.80
2019-03-16T08:46:15.989Z,9.00
2019-03-16T08:48:46.789Z,9.30
2019-03-16T08:51:16.825Z,9.60
2019-03-16T08:53:46.245Z,9.20
2019-03-16T08:56:20.324Z,9.40
2019-03-16T08:58:50.118Z,9.50
2019-03-16T09:01:19.643Z,9.60
2019-03-16T09:03:49.778Z,9.40
2019-03-16T09:06:19.138Z,9.30
2019-03-16T09:08:57.446Z,9.50
2019-03-16T09:11:26.936Z,9.80
2019-03-16T09:14:00.835Z,9.70
2019-03-16T09:16:30.007Z,9.40
2019-03-16T09:19:05.124Z,9.50
2019-03-16T09:21:34.185Z,9.40
2019-03-16T09:24:03.690Z,9.70
2019-03-16T09:26:40.261Z,9.90
2019-03-16T09:29:15.261Z,10.10
2019-03-16T09:31:39.773Z,10.10
2019-03-16T09:34:10.167Z,10.20
2019-03-16T09:36:39.575Z,10.20
2019-03-16T09:39:11.134Z,10.00
2019-03-16T09:41:40.433Z,9.60
2019-03-16T09:44:09.635Z,9.90
2019-03-16T09:46:42.936Z,9.90
2019-03-16T09:49:12.161Z,9.80
2019-03-16T09:51:43.741Z,9.90
2019-03-16T09:54:15.739Z,10.00
2019-03-16T09:57:00.188Z,10.30
2019-03-16T09:59:18.943Z,10.10
2019-03-16T10:01:50.286Z,9.90
2019-03-16T10:04:19.465Z,10.10
2019-03-16T10:06:52.378Z,10.10
2019-03-16T10:09:21.658Z,10.20
2019-03-16T10:11:53.548Z,10.20
2019-03-16T10:14:24.314Z,10.40
2019-03-16T10:16:53.654Z,10.50
2019-03-16T10:19:22.677Z,10.40
2019-03-16T10:21:51.924Z,10.10
2019-03-16T10:24:21.816Z,10.40
2019-03-16T10:26:50.954Z,10.20
2019-03-16T10:29:26.501Z,10.30
2019-03-16T10:31:55.582Z,10.30
2019-03-16T10:34:32.571Z,10.40
2019-03-16T10:37:01.994Z,10.40
2019-03-16T10:39:31.158Z,10.50
2019-03-16T10:42:00.212Z,10.60
2019-03-16T10:44:30.378Z,10.30
2019-03-16T10:46:59.465Z,10.30
2019-03-16T10:49:30.693Z,9.90
2019-03-16T10:52:03.555Z,9.90
2019-03-16T10:54:32.735Z,10.00
2019-03-16T10:57:09.563Z,9.90
2019-03-16T10:59:41.461Z,9.90
